Forside
METAR-TAF:

METAR-TAF

Lufthavne :

Wellington, New Zealand

Breddekreds: 41-20S, længdekreds: 174-48E, højde: 12 m

Aktuelle vejr

Denne rapport blev lavet for 29 minutter siden, kl. 02:30 UTC
Vind 18 kt fra nord
Temperatur 19°C
Fugtighed 68%
Tryk 1018 hPa
Sigt 10 km eller mere

METAR: NZWN 160230Z AUTO 36018KT 9999 SCT018/// BKN024/// 19/13 Q1018 NOSIG

Tid: 15:59 (02:59 UTC)

Vejrudsigter

Denne rapport blev lavet for 3 timer og 47 minutter siden, kl. 23:12 UTC
Foreløbig gælder fra 16 på 00 UTC til 17 på 00 UTC
Vind 20 kt fra nord med vindstød på up til 30 kt
Sigt 10 km eller mere
Spredte skyer i en højde af 2000 ft
ændring
fra 16 på 10 UTC til 16 på 12 UTC
Vind 12 kt fra nord
Midlertidig
fra 16 på 14 UTC til 16 på 20 UTC
Brudte skyer i en højde af 1400 ft
ændring
fra 16 på 22 UTC til 17 på 00 UTC
Vind 15 kt fra nord med vindstød på up til 25 kt

TAF: NZWN 152312Z 1600/1700 36020G30KT 9999 SCT020 BECMG 1610/1612 36012KT TEMPO 1614/1620 BKN014 BECMG 1622/1700 36015G25KT

Vejrobservationer og prognoser fra mere end 4000 lufthavne (METAR og TAF).

De gule og røde prikker repræsenterer de meteorologiske stationer.

Flyt musen over at se navnet på stationen.

Så klik over at se vejr observationer og prognoser.

At skifte det kort: Klik på de grønne knapper med et sort kors for at zoome ind; på den grønne knap med en bindestreg for at zoome ud; eller på de grønne pile for tilstødende kort.


METAR-TAF: